Airfield :
LOGIN :

Register | Disclaimer

   EN    FR    IT 

 










Legend :    VFR   Marginal VFR   IFR   Intensive IFR   Very Intensive IFR
Visi :
Ceiling :
>= 8 km
>= 3000ft
5 to 8 km
1000 to 3000 ft
1500m to 5 km
500 to 1000 ft
800 to 1500m
200 to 500 ft
< 800m
< 200 ft
Symbols :   Thunderstorms  Fog  Heavy snow  Heavy precipitations  Wind > 20 kt
SIGMETs :     Misc.  Thunderstorms  Icing  Turbulence  Mountain Waves  Volcanic Ashes







- Airport Elevation : 140 ft
- IATA code : NYO


ESKN - Skavsta

CURRENT METAR :
  • 181520Z 33014KT 9999 -SHRA BKN007 BKN020CB 02/02 Q0995 R26/290195

EXPIRED METARs :
  • 181450Z 33014KT 9999 -SHRA SCT010 BKN019CB 03/02 Q0993 R26/290195
  • 181420Z 30009KT 260V330 9999 VCSH FEW013CB BKN014 05/02 Q0993 R26/290195
  • 181350Z 32009KT 280V350 9999 VCSH FEW007 SCT011CB 05/04 Q0992 R26/290195
  • 181320Z 29007KT 270V340 9999 FEW007 BKN012 04/03 Q0992 R26/290195
  • 181250Z 33007KT 290V010 9999 BKN007 04/03 Q0991 R26/290195
  • 181220Z 27007KT 9999 -RA SCT007 BKN020 04/03 Q0991 R26/290195

TAF TAF ESKN
Valid from the 18 at 12:00 until the 19 at 12:00 UTC


181130Z 1812/1912 23008KT 9999 -RA SCT007 BKN015
TEMPO 1812/1817 4000 SHRA BKN009 BKN020CB
BECMG 1812/1813 33010KT
TEMPO 1817/1821 2000 SNRA BKN004 BKN020CB
No reported NOTAMs for that airfield.



MET'MAP, your aeronautical weather chart ! - Copyright ORBIFLY December 2007 - Disclaimer

ORBIFLY MET'MAP TEAM :

Programming & Development : Alexandra Zaïnal
Concept & Development : Baudouin d'Aumeries
Co-Development & Prog : Marc-Olivier Méhu
Technical & hardware support : Manuel Goepfert

Contact : metmap@orbifly.com




SOURCES & CREDITS :

   NOAA